This is the latest recevied weather packets stored in our database for station/object OE5OVL-13. If no packets are shown the sender has not sent any weather packets the latest 10 day(s).
| Time | Temp. | Humidity | Pressure | Rain* | Wind** | Luminosity | Snow |
|---|---|---|---|---|---|---|---|
| 1777913968 | 30.56° C | 27% | 741.1 hPa | 0 mm | - | - | - |
| 1777913057 | 34.44° C | 22% | 745.5 hPa | 0 mm | - | - | - |
| 1777912145 | 32.22° C | 24% | 742.9 hPa | 0 mm | - | - | - |
| 1777911233 | 32.22° C | 23% | 743.1 hPa | 0 mm | - | - | - |
| 1777910321 | 35.56° C | 21% | 746.6 hPa | 0 mm | - | - | - |
| 1777909409 | 38.89° C | 18% | 750.5 hPa | 0 mm | - | - | - |
| 1777908497 | 39.44° C | 18% | 751.5 hPa | 0 mm | - | - | - |
| 1777906673 | 38.89° C | 18% | 750.7 hPa | 0 mm | - | - | - |
| 1777905762 | 38.89° C | 17% | 750.8 hPa | 0 mm | - | - | - |
| 1777903026 | 37.78° C | 19% | 749.6 hPa | 0 mm | - | - | - |
| 1777902114 | 36.11° C | 19% | 747.7 hPa | 0 mm | - | - | - |
| 1777901203 | 36.11° C | 23% | 747.5 hPa | 0 mm | - | - | - |
| 1777900291 | 35° C | 24% | 745.9 hPa | 0 mm | - | - | - |
| 1777899379 | 33.33° C | 22% | 744.4 hPa | 0 mm | - | - | - |
| 1777898467 | 33.33° C | 28% | 744.2 hPa | 0 mm | - | - | - |
| 1777897556 | 32.22° C | 29% | 742.7 hPa | 0 mm | - | - | - |
| 1777896644 | 30.56° C | 29% | 741.1 hPa | 0 mm | - | - | - |
| 1777895732 | 30° C | 32% | 740.5 hPa | 0 mm | - | - | - |
| 1777894821 | 29.44° C | 35% | 739.7 hPa | 0 mm | - | - | - |
| 1777893909 | 27.78° C | 35% | 737.8 hPa | 0 mm | - | - | - |
| 1777892997 | 26.67° C | 37% | 736.6 hPa | 0 mm | - | - | - |
| 1777892085 | 26.11° C | 39% | 735.8 hPa | 0 mm | - | - | - |
| 1777891173 | 25° C | 40% | 734.6 hPa | 0 mm | - | - | - |
| 1777890262 | 25° C | 42% | 734.3 hPa | 0 mm | - | - | - |
| 1777889350 | 23.89° C | 42% | 733.3 hPa | 0 mm | - | - | - |
* Rain latest hour (hover to see other rain measurements)
** Current wind speed in m/s (hover to see current wind gust speed)